createdAt,value
2019-02-28T00:03:53.230Z,24.10
2019-02-28T00:08:58.678Z,25.10
2019-02-28T00:14:04.117Z,24.72
2019-02-28T00:19:09.733Z,25.12
2019-02-28T00:24:15.212Z,25.55
2019-02-28T00:29:20.620Z,24.75
2019-02-28T00:34:26.030Z,25.32
2019-02-28T00:39:34.762Z,23.85
2019-02-28T00:44:38.658Z,26.23
2019-02-28T00:49:44.017Z,26.73
2019-02-28T00:54:49.508Z,24.47
2019-02-28T00:59:54.935Z,25.65
2019-02-28T01:05:01.309Z,25.68
2019-02-28T01:10:10.708Z,25.25
2019-02-28T01:15:17.581Z,25.23
2019-02-28T01:20:23.016Z,25.80
2019-02-28T01:25:28.385Z,27.25
2019-02-28T01:30:33.793Z,26.33
2019-02-28T01:35:40.797Z,26.37
2019-02-28T01:40:46.260Z,27.02
2019-02-28T01:45:51.624Z,25.62
2019-02-28T01:50:57.047Z,25.80
2019-02-28T01:56:03.241Z,25.43
2019-02-28T02:01:08.938Z,25.45
2019-02-28T02:06:14.302Z,24.77
2019-02-28T02:11:19.662Z,25.32
2019-02-28T02:16:27.697Z,25.12
2019-02-28T02:21:34.914Z,26.37
2019-02-28T02:26:39.109Z,26.52
2019-02-28T02:31:44.457Z,25.15
2019-02-28T02:36:54.255Z,24.18
2019-02-28T02:41:56.951Z,26.07
2019-02-28T02:47:02.443Z,24.80
2019-02-28T02:52:07.956Z,25.85
2019-02-28T02:57:19.538Z,25.60
2019-02-28T03:02:28.762Z,25.80
2019-02-28T03:07:32.010Z,25.68
2019-02-28T03:12:37.444Z,25.32
2019-02-28T03:17:46.478Z,23.65
2019-02-28T03:22:50.062Z,23.40
2019-02-28T03:27:56.736Z,24.57
2019-02-28T03:33:02.488Z,24.45
2019-02-28T03:38:11.301Z,23.45
2019-02-28T03:43:15.065Z,23.25
2019-02-28T03:48:20.458Z,23.77
2019-02-28T03:53:25.955Z,23.15
2019-02-28T03:58:31.509Z,23.75
2019-02-28T04:03:37.056Z,23.77
2019-02-28T04:08:42.472Z,20.90
2019-02-28T04:13:47.893Z,21.77
2019-02-28T04:18:53.331Z,22.10
2019-02-28T04:23:58.675Z,21.27
2019-02-28T04:29:04.026Z,22.67
2019-02-28T04:34:12.885Z,22.20
2019-02-28T04:39:16.425Z,21.55
2019-02-28T04:44:21.810Z,20.48
2019-02-28T04:49:27.182Z,20.72
2019-02-28T04:54:32.673Z,19.45
2019-02-28T04:59:37.998Z,20.17
2019-02-28T05:04:43.531Z,20.57
2019-02-28T05:09:50.542Z,17.23
2019-02-28T05:14:58.547Z,18.85
2019-02-28T05:20:02.995Z,19.40
2019-02-28T05:25:09.992Z,20.25
2019-02-28T05:30:19.519Z,17.90
2019-02-28T05:35:26.646Z,16.27
2019-02-28T05:40:30.826Z,16.65
2019-02-28T05:45:36.182Z,18.92
2019-02-28T05:50:41.683Z,16.50
2019-02-28T05:55:47.087Z,18.07
2019-02-28T06:00:52.441Z,16.82
2019-02-28T06:05:57.983Z,15.95
2019-02-28T06:11:03.470Z,15.08
2019-02-28T06:16:12.306Z,16.20
2019-02-28T06:21:15.889Z,14.20
2019-02-28T06:26:21.303Z,15.05
2019-02-28T06:31:26.658Z,15.10
2019-02-28T06:36:32.190Z,13.90
2019-02-28T06:41:39.842Z,14.18
2019-02-28T06:46:44.583Z,15.50
2019-02-28T06:51:51.338Z,14.40
2019-02-28T06:56:57.053Z,15.00
2019-02-28T07:02:02.501Z,13.58
2019-02-28T07:07:10.254Z,13.70
2019-02-28T07:12:15.067Z,12.63
2019-02-28T07:17:20.430Z,16.97
2019-02-28T07:22:26.691Z,19.73
2019-02-28T07:27:32.044Z,15.95
2019-02-28T07:32:37.447Z,14.30
2019-02-28T07:37:42.930Z,17.30
2019-02-28T07:42:48.330Z,15.30
2019-02-28T07:47:53.747Z,15.23
2019-02-28T07:52:59.117Z,15.88
2019-02-28T07:58:04.878Z,15.28
2019-02-28T08:03:11.293Z,15.25
2019-02-28T08:08:17.496Z,15.00
2019-02-28T08:13:22.931Z,14.83
2019-02-28T08:18:28.418Z,15.90
2019-02-28T08:23:33.917Z,17.70
2019-02-28T08:28:39.671Z,19.95
2019-02-28T08:33:48.146Z,21.07
2019-02-28T08:38:52.082Z,22.05
2019-02-28T08:43:57.437Z,21.60
2019-02-28T08:49:06.314Z,22.58
2019-02-28T08:54:09.841Z,21.27
2019-02-28T08:59:18.232Z,23.22
2019-02-28T09:04:22.498Z,21.68
2019-02-28T09:09:27.862Z,20.65
2019-02-28T09:14:33.394Z,21.12
2019-02-28T09:19:38.878Z,20.45
2019-02-28T09:24:46.734Z,20.57
2019-02-28T09:29:54.356Z,21.65
2019-02-28T09:34:58.461Z,21.35
2019-02-28T09:40:05.495Z,21.12
2019-02-28T09:45:19.102Z,19.75
2019-02-28T09:50:24.582Z,20.60
2019-02-28T09:55:34.369Z,21.62
2019-02-28T10:00:37.298Z,23.87
2019-02-28T10:05:43.342Z,20.57
2019-02-28T10:10:52.346Z,19.05
2019-02-28T10:15:56.328Z,22.10
2019-02-28T10:21:02.642Z,24.57
2019-02-28T10:26:08.315Z,25.27
2019-02-28T10:31:13.754Z,26.70
2019-02-28T10:36:19.270Z,28.42
2019-02-28T10:41:27.976Z,26.42
2019-02-28T10:46:31.896Z,29.37
2019-02-28T10:51:37.233Z,29.07
2019-02-28T10:56:47.400Z,24.32
2019-02-28T11:01:52.968Z,27.22
2019-02-28T11:06:59.327Z,25.75
2019-02-28T11:12:05.973Z,25.57
2019-02-28T11:17:13.825Z,27.37
2019-02-28T11:22:18.799Z,24.27
2019-02-28T11:27:24.296Z,24.10
2019-02-28T11:32:29.987Z,22.37
2019-02-28T11:37:35.772Z,22.15
2019-02-28T11:42:41.534Z,21.93
2019-02-28T11:47:48.706Z,19.92
2019-02-28T11:52:54.132Z,23.20
2019-02-28T11:57:59.693Z,22.58
2019-02-28T12:03:05.899Z,22.10
2019-02-28T12:08:11.570Z,24.10
2019-02-28T12:13:19.581Z,23.62
2019-02-28T12:18:26.117Z,23.10
2019-02-28T12:23:31.251Z,21.27
2019-02-28T12:28:38.419Z,24.27
2019-02-28T12:33:43.670Z,18.90
2019-02-28T12:38:49.150Z,23.80
2019-02-28T12:43:54.575Z,21.15
2019-02-28T12:49:00.073Z,24.43
2019-02-28T12:54:05.591Z,23.75
2019-02-28T12:59:10.970Z,22.22
2019-02-28T13:04:16.376Z,21.75
2019-02-28T13:09:21.896Z,22.67
2019-02-28T13:14:27.384Z,22.55
2019-02-28T13:19:32.906Z,23.25
2019-02-28T13:24:38.324Z,23.92
2019-02-28T13:29:43.758Z,25.92
2019-02-28T13:34:49.262Z,26.50
2019-02-28T13:39:54.764Z,24.37
2019-02-28T13:45:00.324Z,24.50
2019-02-28T13:50:08.805Z,25.35
2019-02-28T13:55:19.027Z,25.00
2019-02-28T14:00:28.182Z,24.43
2019-02-28T14:05:38.660Z,24.70
2019-02-28T14:10:41.211Z,21.80
2019-02-28T14:15:52.604Z,25.52
2019-02-28T14:20:59.532Z,24.60
2019-02-28T14:26:05.446Z,23.02
2019-02-28T14:31:11.085Z,24.65
2019-02-28T14:36:16.575Z,24.23
2019-02-28T14:41:24.631Z,23.07
2019-02-28T14:46:29.127Z,28.30
2019-02-28T14:51:34.546Z,27.45
2019-02-28T14:56:42.261Z,25.70
2019-02-28T15:01:49.568Z,24.55
2019-02-28T15:06:55.306Z,24.00
2019-02-28T15:12:00.863Z,26.68
2019-02-28T15:17:07.696Z,26.57
2019-02-28T15:22:17.228Z,27.25
2019-02-28T15:27:21.465Z,28.02
2019-02-28T15:32:27.063Z,26.90
2019-02-28T15:37:33.677Z,25.75
2019-02-28T15:42:42.629Z,25.77
2019-02-28T15:47:46.927Z,24.27
2019-02-28T15:52:52.946Z,25.80
2019-02-28T15:57:58.521Z,25.92
2019-02-28T16:03:04.573Z,22.13
2019-02-28T16:08:10.787Z,22.02
2019-02-28T16:13:17.471Z,24.95
2019-02-28T16:18:22.989Z,24.07
2019-02-28T16:23:30.924Z,25.82
2019-02-28T16:28:39.447Z,25.50
2019-02-28T16:33:43.887Z,29.05
2019-02-28T16:38:49.412Z,27.40
2019-02-28T16:43:55.473Z,28.17
2019-02-28T16:49:01.838Z,31.37
2019-02-28T16:54:07.386Z,31.48
2019-02-28T16:59:12.821Z,29.45
2019-02-28T17:04:18.488Z,32.30
2019-02-28T17:09:26.568Z,32.73
2019-02-28T17:14:35.718Z,32.58
2019-02-28T17:19:41.592Z,33.18
2019-02-28T17:24:47.028Z,33.13
2019-02-28T17:29:54.074Z,33.85
2019-02-28T17:34:59.660Z,34.27
2019-02-28T17:40:11.099Z,34.75
2019-02-28T17:45:20.239Z,35.40
2019-02-28T17:50:44.060Z,36.75
2019-02-28T17:56:03.806Z,36.05
2019-02-28T18:01:11.618Z,38.17
2019-02-28T18:06:47.298Z,38.02
2019-02-28T18:12:05.974Z,34.45
2019-02-28T18:17:44.908Z,36.83
2019-02-28T18:22:55.864Z,34.92
2019-02-28T18:28:22.631Z,36.53
2019-02-28T18:33:26.123Z,37.08
2019-02-28T18:38:31.700Z,40.08
2019-02-28T18:43:37.288Z,44.45
2019-02-28T18:48:43.422Z,39.58
2019-02-28T18:53:49.076Z,42.83
2019-02-28T18:58:54.960Z,37.40
2019-02-28T19:04:01.360Z,39.35
2019-02-28T19:09:16.914Z,36.25
2019-02-28T19:14:22.522Z,39.50
2019-02-28T19:19:28.903Z,42.58
2019-02-28T19:24:35.438Z,39.85
2019-02-28T19:29:41.764Z,39.03
2019-02-28T19:34:48.402Z,37.00
2019-02-28T19:39:53.847Z,37.45
2019-02-28T19:44:59.499Z,34.35
2019-02-28T19:50:07.892Z,36.15
2019-02-28T19:55:16.509Z,31.40
2019-02-28T20:00:22.093Z,31.55
2019-02-28T20:05:27.596Z,29.65
2019-02-28T20:10:33.106Z,28.90
2019-02-28T20:15:40.377Z,28.98
2019-02-28T20:20:46.461Z,33.70
2019-02-28T20:25:52.047Z,59.13
2019-02-28T20:30:58.359Z,31.17
2019-02-28T20:36:03.884Z,29.00
2019-02-28T20:41:09.535Z,31.25
2019-02-28T20:46:14.888Z,30.52
2019-02-28T20:51:20.306Z,33.95
2019-02-28T20:56:25.732Z,30.77
2019-02-28T21:01:31.664Z,32.38
2019-02-28T21:06:37.447Z,30.92
2019-02-28T21:11:42.959Z,34.38
2019-02-28T21:16:48.484Z,34.58
2019-02-28T21:21:53.910Z,38.80
2019-02-28T21:26:59.420Z,38.08
2019-02-28T21:32:04.977Z,41.60
2019-02-28T21:37:10.843Z,37.88
2019-02-28T21:42:17.254Z,38.63
2019-02-28T21:47:22.607Z,40.80
2019-02-28T21:52:27.989Z,41.60
2019-02-28T21:57:33.461Z,38.78
2019-02-28T22:02:38.949Z,37.28
2019-02-28T22:07:44.822Z,41.75
2019-02-28T22:12:50.324Z,40.73
2019-02-28T22:17:56.625Z,66.60
2019-02-28T22:23:02.121Z,51.63
2019-02-28T22:28:07.541Z,48.80
2019-02-28T22:33:27.564Z,44.83
2019-02-28T22:38:33.046Z,45.33
2019-02-28T22:43:38.405Z,50.45
2019-02-28T22:48:43.842Z,53.30
2019-02-28T22:53:49.355Z,48.00
2019-02-28T22:58:54.777Z,54.60
2019-02-28T23:04:00.295Z,49.77
2019-02-28T23:09:06.279Z,47.43
2019-02-28T23:14:11.789Z,62.88
2019-02-28T23:19:17.238Z,48.35
2019-02-28T23:24:22.756Z,45.40
2019-02-28T23:29:28.782Z,44.38
2019-02-28T23:34:36.166Z,49.13
2019-02-28T23:39:41.669Z,53.68
2019-02-28T23:44:47.086Z,47.95
2019-02-28T23:49:52.433Z,65.10
2019-02-28T23:54:57.788Z,54.20
